sensor_id;sensor_type;location;lat;lon;timestamp;temperature;humidity
12602;DHT22;30282;16.436;99.370;2023-07-08T00:00:29;27.10;99.90
12602;DHT22;30282;16.436;99.370;2023-07-08T00:02:58;27.10;99.90
12602;DHT22;30282;16.436;99.370;2023-07-08T00:05:27;27.20;99.90
12602;DHT22;30282;16.436;99.370;2023-07-08T00:07:58;27.20;99.90
12602;DHT22;30282;16.436;99.370;2023-07-08T00:10:30;27.30;99.90
12602;DHT22;30282;16.436;99.370;2023-07-08T00:13:00;27.30;99.90
12602;DHT22;30282;16.436;99.370;2023-07-08T00:15:30;27.30;99.90
12602;DHT22;30282;16.436;99.370;2023-07-08T00:18:00;27.40;99.90
12602;DHT22;30282;16.436;99.370;2023-07-08T00:20:38;27.40;99.90
12602;DHT22;30282;16.436;99.370;2023-07-08T00:23:09;27.50;99.90
12602;DHT22;30282;16.436;99.370;2023-07-08T00:25:38;27.60;99.90
12602;DHT22;30282;16.436;99.370;2023-07-08T00:28:10;27.70;99.90
12602;DHT22;30282;16.436;99.370;2023-07-08T00:30:40;27.70;99.90
12602;DHT22;30282;16.436;99.370;2023-07-08T00:33:10;27.80;99.90
12602;DHT22;30282;16.436;99.370;2023-07-08T00:35:41;27.90;99.90
12602;DHT22;30282;16.436;99.370;2023-07-08T00:38:15;28.00;99.90
12602;DHT22;30282;16.436;99.370;2023-07-08T00:40:52;28.10;99.90
12602;DHT22;30282;16.436;99.370;2023-07-08T00:43:29;28.20;99.90
12602;DHT22;30282;16.436;99.370;2023-07-08T00:46:08;28.20;99.90
12602;DHT22;30282;16.436;99.370;2023-07-08T00:48:41;28.30;99.90
12602;DHT22;30282;16.436;99.370;2023-07-08T00:51:11;28.40;99.90
12602;DHT22;30282;16.436;99.370;2023-07-08T00:53:42;28.40;99.90
12602;DHT22;30282;16.436;99.370;2023-07-08T00:56:15;28.50;99.90
12602;DHT22;30282;16.436;99.370;2023-07-08T00:58:47;28.50;99.90
12602;DHT22;30282;16.436;99.370;2023-07-08T01:01:18;28.60;99.90
12602;DHT22;30282;16.436;99.370;2023-07-08T01:03:50;28.60;99.90
12602;DHT22;30282;16.436;99.370;2023-07-08T01:06:25;28.70;99.90
12602;DHT22;30282;16.436;99.370;2023-07-08T01:09:02;28.70;99.90
12602;DHT22;30282;16.436;99.370;2023-07-08T01:11:32;28.70;99.90
12602;DHT22;30282;16.436;99.370;2023-07-08T01:14:07;28.70;99.90
12602;DHT22;30282;16.436;99.370;2023-07-08T01:16:38;28.80;99.90
12602;DHT22;30282;16.436;99.370;2023-07-08T01:19:10;28.90;99.90
12602;DHT22;30282;16.436;99.370;2023-07-08T01:21:46;28.90;99.90
12602;DHT22;30282;16.436;99.370;2023-07-08T01:24:15;29.00;99.90
12602;DHT22;30282;16.436;99.370;2023-07-08T01:26:45;29.10;99.90
12602;DHT22;30282;16.436;99.370;2023-07-08T01:29:15;29.10;99.90
12602;DHT22;30282;16.436;99.370;2023-07-08T01:31:44;29.20;99.90
12602;DHT22;30282;16.436;99.370;2023-07-08T01:34:16;29.30;99.90
12602;DHT22;30282;16.436;99.370;2023-07-08T01:36:49;29.40;99.90
12602;DHT22;30282;16.436;99.370;2023-07-08T01:39:22;29.40;99.90
12602;DHT22;30282;16.436;99.370;2023-07-08T01:41:52;29.40;99.90
12602;DHT22;30282;16.436;99.370;2023-07-08T01:44:28;29.50;99.90
12602;DHT22;30282;16.436;99.370;2023-07-08T01:47:00;29.60;99.90
12602;DHT22;30282;16.436;99.370;2023-07-08T01:49:32;29.70;99.90
12602;DHT22;30282;16.436;99.370;2023-07-08T01:52:05;29.80;99.90
12602;DHT22;30282;16.436;99.370;2023-07-08T01:54:34;29.90;99.90
12602;DHT22;30282;16.436;99.370;2023-07-08T01:57:04;29.90;99.90
12602;DHT22;30282;16.436;99.370;2023-07-08T01:59:33;30.00;99.90
12602;DHT22;30282;16.436;99.370;2023-07-08T02:02:03;30.00;99.90
12602;DHT22;30282;16.436;99.370;2023-07-08T02:04:32;30.10;99.90
12602;DHT22;30282;16.436;99.370;2023-07-08T02:07:03;30.20;99.90
12602;DHT22;30282;16.436;99.370;2023-07-08T02:09:32;30.20;99.90
12602;DHT22;30282;16.436;99.370;2023-07-08T02:12:01;30.30;99.90
12602;DHT22;30282;16.436;99.370;2023-07-08T02:14:30;30.30;99.90
12602;DHT22;30282;16.436;99.370;2023-07-08T02:17:00;30.40;99.90
12602;DHT22;30282;16.436;99.370;2023-07-08T02:19:32;30.50;99.90
12602;DHT22;30282;16.436;99.370;2023-07-08T02:22:03;30.60;99.90
12602;DHT22;30282;16.436;99.370;2023-07-08T02:24:33;30.70;99.90
12602;DHT22;30282;16.436;99.370;2023-07-08T02:27:05;30.80;99.90
12602;DHT22;30282;16.436;99.370;2023-07-08T02:29:34;30.90;99.90
12602;DHT22;30282;16.436;99.370;2023-07-08T02:32:05;30.90;99.90
12602;DHT22;30282;16.436;99.370;2023-07-08T02:34:36;30.90;99.90
12602;DHT22;30282;16.436;99.370;2023-07-08T02:37:07;31.00;99.90
12602;DHT22;30282;16.436;99.370;2023-07-08T02:39:36;31.00;99.90
12602;DHT22;30282;16.436;99.370;2023-07-08T02:42:05;31.00;99.90
12602;DHT22;30282;16.436;99.370;2023-07-08T02:44:35;31.10;99.90
12602;DHT22;30282;16.436;99.370;2023-07-08T02:47:04;31.20;99.90
12602;DHT22;30282;16.436;99.370;2023-07-08T02:49:33;31.20;99.90
12602;DHT22;30282;16.436;99.370;2023-07-08T02:52:03;31.30;99.90
12602;DHT22;30282;16.436;99.370;2023-07-08T02:54:34;31.30;99.90
12602;DHT22;30282;16.436;99.370;2023-07-08T02:57:03;31.50;99.90
12602;DHT22;30282;16.436;99.370;2023-07-08T02:59:36;31.50;99.90
12602;DHT22;30282;16.436;99.370;2023-07-08T03:02:06;31.50;99.90
12602;DHT22;30282;16.436;99.370;2023-07-08T03:04:49;31.60;99.90
12602;DHT22;30282;16.436;99.370;2023-07-08T03:07:21;31.60;99.90
12602;DHT22;30282;16.436;99.370;2023-07-08T03:09:52;31.60;99.90
12602;DHT22;30282;16.436;99.370;2023-07-08T03:12:21;31.70;99.90
12602;DHT22;30282;16.436;99.370;2023-07-08T03:14:50;31.80;99.90
12602;DHT22;30282;16.436;99.370;2023-07-08T03:17:20;31.80;99.90
12602;DHT22;30282;16.436;99.370;2023-07-08T03:19:49;31.90;99.90
12602;DHT22;30282;16.436;99.370;2023-07-08T03:22:18;31.90;99.90
12602;DHT22;30282;16.436;99.370;2023-07-08T03:24:47;32.00;99.90
12602;DHT22;30282;16.436;99.370;2023-07-08T03:27:18;32.10;99.90
12602;DHT22;30282;16.436;99.370;2023-07-08T03:29:47;32.20;99.90
12602;DHT22;30282;16.436;99.370;2023-07-08T03:32:17;32.10;99.90
12602;DHT22;30282;16.436;99.370;2023-07-08T03:34:46;32.30;99.90
12602;DHT22;30282;16.436;99.370;2023-07-08T03:37:15;32.30;99.90
12602;DHT22;30282;16.436;99.370;2023-07-08T03:39:44;32.40;99.90
12602;DHT22;30282;16.436;99.370;2023-07-08T03:42:13;32.30;99.90
12602;DHT22;30282;16.436;99.370;2023-07-08T03:44:44;32.40;99.90
12602;DHT22;30282;16.436;99.370;2023-07-08T03:47:13;32.50;99.90
12602;DHT22;30282;16.436;99.370;2023-07-08T03:49:43;32.70;99.90
12602;DHT22;30282;16.436;99.370;2023-07-08T03:52:15;32.70;99.90
12602;DHT22;30282;16.436;99.370;2023-07-08T03:54:47;32.70;99.90
12602;DHT22;30282;16.436;99.370;2023-07-08T03:57:16;32.70;99.90
12602;DHT22;30282;16.436;99.370;2023-07-08T03:59:47;32.80;99.90
12602;DHT22;30282;16.436;99.370;2023-07-08T04:02:16;32.80;99.90
12602;DHT22;30282;16.436;99.370;2023-07-08T04:04:45;32.90;99.90
12602;DHT22;30282;16.436;99.370;2023-07-08T04:07:15;32.90;99.90
12602;DHT22;30282;16.436;99.370;2023-07-08T04:09:44;33.00;99.90
12602;DHT22;30282;16.436;99.370;2023-07-08T04:12:17;33.00;99.90
12602;DHT22;30282;16.436;99.370;2023-07-08T04:14:48;33.10;99.90
12602;DHT22;30282;16.436;99.370;2023-07-08T04:17:19;33.20;99.90
12602;DHT22;30282;16.436;99.370;2023-07-08T04:19:50;33.10;99.90
12602;DHT22;30282;16.436;99.370;2023-07-08T04:22:19;33.20;99.90
12602;DHT22;30282;16.436;99.370;2023-07-08T04:24:48;33.20;99.90
12602;DHT22;30282;16.436;99.370;2023-07-08T04:27:18;33.30;99.90
12602;DHT22;30282;16.436;99.370;2023-07-08T04:29:59;33.20;99.90
12602;DHT22;30282;16.436;99.370;2023-07-08T04:32:29;33.30;99.90
12602;DHT22;30282;16.436;99.370;2023-07-08T04:34:58;33.20;99.90
12602;DHT22;30282;16.436;99.370;2023-07-08T04:37:28;33.40;99.90
12602;DHT22;30282;16.436;99.370;2023-07-08T04:39:57;33.30;99.90
12602;DHT22;30282;16.436;99.370;2023-07-08T04:42:26;33.30;99.90
12602;DHT22;30282;16.436;99.370;2023-07-08T04:44:59;33.30;99.90
12602;DHT22;30282;16.436;99.370;2023-07-08T04:47:31;33.40;99.90
12602;DHT22;30282;16.436;99.370;2023-07-08T04:50:00;33.50;99.90
12602;DHT22;30282;16.436;99.370;2023-07-08T04:52:30;33.50;99.90
12602;DHT22;30282;16.436;99.370;2023-07-08T04:54:59;33.30;99.90
12602;DHT22;30282;16.436;99.370;2023-07-08T04:57:28;33.50;99.90
12602;DHT22;30282;16.436;99.370;2023-07-08T04:59:59;33.50;99.90
12602;DHT22;30282;16.436;99.370;2023-07-08T05:02:28;33.60;99.90
12602;DHT22;30282;16.436;99.370;2023-07-08T05:04:57;33.70;99.90
12602;DHT22;30282;16.436;99.370;2023-07-08T05:07:27;33.70;99.90
12602;DHT22;30282;16.436;99.370;2023-07-08T05:09:56;33.70;99.90
12602;DHT22;30282;16.436;99.370;2023-07-08T05:12:26;33.80;99.90
12602;DHT22;30282;16.436;99.370;2023-07-08T05:14:57;33.70;99.90
12602;DHT22;30282;16.436;99.370;2023-07-08T05:17:28;33.80;99.90
12602;DHT22;30282;16.436;99.370;2023-07-08T05:19:57;33.90;99.90
12602;DHT22;30282;16.436;99.370;2023-07-08T05:22:27;33.90;99.90
12602;DHT22;30282;16.436;99.370;2023-07-08T05:24:56;33.80;99.90
12602;DHT22;30282;16.436;99.370;2023-07-08T05:27:26;33.90;99.90
12602;DHT22;30282;16.436;99.370;2023-07-08T05:29:55;34.00;99.90
12602;DHT22;30282;16.436;99.370;2023-07-08T05:32:26;33.90;99.90
12602;DHT22;30282;16.436;99.370;2023-07-08T05:34:55;34.00;99.90
12602;DHT22;30282;16.436;99.370;2023-07-08T05:37:24;34.00;99.90
12602;DHT22;30282;16.436;99.370;2023-07-08T05:39:55;34.10;99.90
12602;DHT22;30282;16.436;99.370;2023-07-08T05:42:27;34.20;99.90
12602;DHT22;30282;16.436;99.370;2023-07-08T05:44:56;34.20;99.90
12602;DHT22;30282;16.436;99.370;2023-07-08T05:47:27;34.20;99.90
12602;DHT22;30282;16.436;99.370;2023-07-08T05:49:56;34.20;99.90
12602;DHT22;30282;16.436;99.370;2023-07-08T05:52:25;34.30;99.90
12602;DHT22;30282;16.436;99.370;2023-07-08T05:54:54;34.20;99.90
12602;DHT22;30282;16.436;99.370;2023-07-08T05:57:24;34.20;99.90
12602;DHT22;30282;16.436;99.370;2023-07-08T05:59:53;34.20;99.90
12602;DHT22;30282;16.436;99.370;2023-07-08T06:02:22;34.30;99.90
12602;DHT22;30282;16.436;99.370;2023-07-08T06:04:54;34.30;99.90
12602;DHT22;30282;16.436;99.370;2023-07-08T06:07:23;34.50;99.90
12602;DHT22;30282;16.436;99.370;2023-07-08T06:09:52;34.50;99.90
12602;DHT22;30282;16.436;99.370;2023-07-08T06:12:22;34.60;99.90
12602;DHT22;30282;16.436;99.370;2023-07-08T06:14:52;34.70;99.90
12602;DHT22;30282;16.436;99.370;2023-07-08T06:17:22;34.80;99.90
12602;DHT22;30282;16.436;99.370;2023-07-08T06:19:53;34.80;99.90
12602;DHT22;30282;16.436;99.370;2023-07-08T06:22:22;34.80;99.90
12602;DHT22;30282;16.436;99.370;2023-07-08T06:24:51;34.80;99.90
12602;DHT22;30282;16.436;99.370;2023-07-08T06:27:21;34.80;99.90
12602;DHT22;30282;16.436;99.370;2023-07-08T06:29:50;34.90;99.90
12602;DHT22;30282;16.436;99.370;2023-07-08T06:32:19;35.00;99.90
12602;DHT22;30282;16.436;99.370;2023-07-08T06:34:49;34.90;99.90
12602;DHT22;30282;16.436;99.370;2023-07-08T06:37:20;34.90;99.90
12602;DHT22;30282;16.436;99.370;2023-07-08T06:39:49;34.80;99.90
12602;DHT22;30282;16.436;99.370;2023-07-08T06:42:18;35.00;99.90
12602;DHT22;30282;16.436;99.370;2023-07-08T06:44:47;35.00;99.90
12602;DHT22;30282;16.436;99.370;2023-07-08T06:47:19;35.10;99.90
12602;DHT22;30282;16.436;99.370;2023-07-08T06:49:49;35.00;99.90
12602;DHT22;30282;16.436;99.370;2023-07-08T06:52:20;34.90;99.90
12602;DHT22;30282;16.436;99.370;2023-07-08T06:54:49;34.80;99.90
12602;DHT22;30282;16.436;99.370;2023-07-08T06:57:18;34.80;99.90
12602;DHT22;30282;16.436;99.370;2023-07-08T06:59:51;34.70;99.90
12602;DHT22;30282;16.436;99.370;2023-07-08T07:02:20;34.80;99.90
12602;DHT22;30282;16.436;99.370;2023-07-08T07:04:49;34.80;99.90
12602;DHT22;30282;16.436;99.370;2023-07-08T07:07:20;34.80;99.90
12602;DHT22;30282;16.436;99.370;2023-07-08T07:09:50;34.80;99.90
12602;DHT22;30282;16.436;99.370;2023-07-08T07:12:19;34.70;99.90
12602;DHT22;30282;16.436;99.370;2023-07-08T07:14:48;34.70;99.90
12602;DHT22;30282;16.436;99.370;2023-07-08T07:17:20;34.70;99.90
12602;DHT22;30282;16.436;99.370;2023-07-08T07:19:50;34.60;99.90
12602;DHT22;30282;16.436;99.370;2023-07-08T07:22:21;34.60;99.90
12602;DHT22;30282;16.436;99.370;2023-07-08T07:24:50;34.50;99.90
12602;DHT22;30282;16.436;99.370;2023-07-08T07:27:20;34.50;99.90
12602;DHT22;30282;16.436;99.370;2023-07-08T07:29:50;34.50;99.90
12602;DHT22;30282;16.436;99.370;2023-07-08T07:32:22;34.50;99.90
12602;DHT22;30282;16.436;99.370;2023-07-08T07:34:51;34.50;99.90
12602;DHT22;30282;16.436;99.370;2023-07-08T07:37:23;34.40;99.90
12602;DHT22;30282;16.436;99.370;2023-07-08T07:39:52;34.30;99.90
12602;DHT22;30282;16.436;99.370;2023-07-08T07:42:21;34.30;99.90
12602;DHT22;30282;16.436;99.370;2023-07-08T07:44:50;34.30;99.90
12602;DHT22;30282;16.436;99.370;2023-07-08T07:47:20;34.20;99.90
12602;DHT22;30282;16.436;99.370;2023-07-08T07:49:49;34.20;99.90
12602;DHT22;30282;16.436;99.370;2023-07-08T07:52:18;34.10;99.90
12602;DHT22;30282;16.436;99.370;2023-07-08T07:54:52;34.10;99.90
12602;DHT22;30282;16.436;99.370;2023-07-08T07:57:22;34.10;99.90
12602;DHT22;30282;16.436;99.370;2023-07-08T07:59:51;34.10;99.90
12602;DHT22;30282;16.436;99.370;2023-07-08T08:02:21;34.10;99.90
12602;DHT22;30282;16.436;99.370;2023-07-08T08:04:50;34.10;99.90
12602;DHT22;30282;16.436;99.370;2023-07-08T08:07:19;34.20;99.90
12602;DHT22;30282;16.436;99.370;2023-07-08T08:09:49;34.20;99.90
12602;DHT22;30282;16.436;99.370;2023-07-08T08:12:19;34.20;99.90
12602;DHT22;30282;16.436;99.370;2023-07-08T08:14:51;34.30;99.90
12602;DHT22;30282;16.436;99.370;2023-07-08T08:17:20;34.30;99.90
12602;DHT22;30282;16.436;99.370;2023-07-08T08:19:50;34.40;99.90
12602;DHT22;30282;16.436;99.370;2023-07-08T08:22:19;34.40;99.90
12602;DHT22;30282;16.436;99.370;2023-07-08T08:24:50;34.40;99.90
12602;DHT22;30282;16.436;99.370;2023-07-08T08:27:21;34.40;99.90
12602;DHT22;30282;16.436;99.370;2023-07-08T08:29:50;34.50;99.90
12602;DHT22;30282;16.436;99.370;2023-07-08T08:32:19;34.60;99.90
12602;DHT22;30282;16.436;99.370;2023-07-08T08:34:49;34.70;99.90
12602;DHT22;30282;16.436;99.370;2023-07-08T08:37:18;34.70;99.90
12602;DHT22;30282;16.436;99.370;2023-07-08T08:39:47;34.70;99.90
12602;DHT22;30282;16.436;99.370;2023-07-08T08:42:22;34.70;99.90
12602;DHT22;30282;16.436;99.370;2023-07-08T08:44:52;34.70;99.90
12602;DHT22;30282;16.436;99.370;2023-07-08T08:47:33;34.80;99.90
12602;DHT22;30282;16.436;99.370;2023-07-08T08:50:11;34.80;99.90
12602;DHT22;30282;16.436;99.370;2023-07-08T08:52:42;34.90;99.90
12602;DHT22;30282;16.436;99.370;2023-07-08T08:55:13;34.80;99.90
12602;DHT22;30282;16.436;99.370;2023-07-08T08:57:48;34.80;99.90
12602;DHT22;30282;16.436;99.370;2023-07-08T09:00:25;34.90;99.90
12602;DHT22;30282;16.436;99.370;2023-07-08T09:03:01;34.80;99.90
12602;DHT22;30282;16.436;99.370;2023-07-08T09:05:30;34.80;99.90
12602;DHT22;30282;16.436;99.370;2023-07-08T09:08:04;34.80;99.90
12602;DHT22;30282;16.436;99.370;2023-07-08T09:10:42;34.80;99.90
12602;DHT22;30282;16.436;99.370;2023-07-08T09:13:19;34.80;99.90
12602;DHT22;30282;16.436;99.370;2023-07-08T09:15:57;34.90;99.90
12602;DHT22;30282;16.436;99.370;2023-07-08T09:18:32;35.00;99.90
12602;DHT22;30282;16.436;99.370;2023-07-08T09:21:12;35.00;99.90
12602;DHT22;30282;16.436;99.370;2023-07-08T09:23:44;35.00;99.90
12602;DHT22;30282;16.436;99.370;2023-07-08T09:26:17;35.00;99.90
12602;DHT22;30282;16.436;99.370;2023-07-08T09:28:49;35.00;99.90
12602;DHT22;30282;16.436;99.370;2023-07-08T09:31:22;35.10;99.90
12602;DHT22;30282;16.436;99.370;2023-07-08T09:33:53;35.00;99.90
12602;DHT22;30282;16.436;99.370;2023-07-08T09:36:25;35.10;99.90
12602;DHT22;30282;16.436;99.370;2023-07-08T09:38:54;35.10;99.90
12602;DHT22;30282;16.436;99.370;2023-07-08T09:41:31;35.10;99.90
12602;DHT22;30282;16.436;99.370;2023-07-08T09:44:20;35.10;99.90
12602;DHT22;30282;16.436;99.370;2023-07-08T09:46:53;35.20;99.90
12602;DHT22;30282;16.436;99.370;2023-07-08T09:49:24;35.20;99.90
12602;DHT22;30282;16.436;99.370;2023-07-08T09:51:55;35.20;99.90
12602;DHT22;30282;16.436;99.370;2023-07-08T09:54:25;35.20;99.90
12602;DHT22;30282;16.436;99.370;2023-07-08T09:57:11;35.20;99.90
12602;DHT22;30282;16.436;99.370;2023-07-08T09:59:46;35.20;99.90
12602;DHT22;30282;16.436;99.370;2023-07-08T10:02:28;35.10;99.90
12602;DHT22;30282;16.436;99.370;2023-07-08T10:05:03;35.20;99.90
12602;DHT22;30282;16.436;99.370;2023-07-08T10:07:39;35.20;99.90
12602;DHT22;30282;16.436;99.370;2023-07-08T10:10:12;35.20;99.90
12602;DHT22;30282;16.436;99.370;2023-07-08T10:12:50;35.10;99.90
12602;DHT22;30282;16.436;99.370;2023-07-08T10:15:27;35.00;99.90
12602;DHT22;30282;16.436;99.370;2023-07-08T10:17:58;35.00;99.90
12602;DHT22;30282;16.436;99.370;2023-07-08T10:20:39;34.90;99.90
12602;DHT22;30282;16.436;99.370;2023-07-08T10:23:23;34.90;99.90
12602;DHT22;30282;16.436;99.370;2023-07-08T10:26:15;34.80;99.90
12602;DHT22;30282;16.436;99.370;2023-07-08T10:28:53;34.80;99.90
12602;DHT22;30282;16.436;99.370;2023-07-08T10:31:44;34.70;99.90
12602;DHT22;30282;16.436;99.370;2023-07-08T10:34:38;34.70;99.90
12602;DHT22;30282;16.436;99.370;2023-07-08T10:37:30;34.60;99.90
12602;DHT22;30282;16.436;99.370;2023-07-08T10:40:22;34.50;99.90
12602;DHT22;30282;16.436;99.370;2023-07-08T10:43:17;34.50;99.90
12602;DHT22;30282;16.436;99.370;2023-07-08T10:45:59;34.50;99.90
12602;DHT22;30282;16.436;99.370;2023-07-08T10:48:50;34.50;99.90
12602;DHT22;30282;16.436;99.370;2023-07-08T10:51:29;34.40;99.90
12602;DHT22;30282;16.436;99.370;2023-07-08T10:54:31;34.40;99.90
12602;DHT22;30282;16.436;99.370;2023-07-08T10:57:27;34.30;99.90
12602;DHT22;30282;16.436;99.370;2023-07-08T11:00:07;34.20;99.90
12602;DHT22;30282;16.436;99.370;2023-07-08T11:05:41;34.10;99.90
12602;DHT22;30282;16.436;99.370;2023-07-08T11:08:14;34.10;99.90
12602;DHT22;30282;16.436;99.370;2023-07-08T11:10:50;34.00;99.90
12602;DHT22;30282;16.436;99.370;2023-07-08T11:13:21;34.00;99.90
12602;DHT22;30282;16.436;99.370;2023-07-08T11:15:54;34.00;99.90
12602;DHT22;30282;16.436;99.370;2023-07-08T11:18:33;33.90;99.90
12602;DHT22;30282;16.436;99.370;2023-07-08T11:21:11;33.90;99.90
12602;DHT22;30282;16.436;99.370;2023-07-08T11:23:45;33.90;99.90
12602;DHT22;30282;16.436;99.370;2023-07-08T11:26:20;33.80;99.90
12602;DHT22;30282;16.436;99.370;2023-07-08T11:28:54;33.80;99.90
12602;DHT22;30282;16.436;99.370;2023-07-08T11:31:27;33.70;99.90
12602;DHT22;30282;16.436;99.370;2023-07-08T11:33:58;33.70;99.90
12602;DHT22;30282;16.436;99.370;2023-07-08T11:36:31;33.70;99.90
12602;DHT22;30282;16.436;99.370;2023-07-08T11:39:02;33.60;99.90
12602;DHT22;30282;16.436;99.370;2023-07-08T11:41:32;33.70;99.90
12602;DHT22;30282;16.436;99.370;2023-07-08T11:44:04;33.60;99.90
12602;DHT22;30282;16.436;99.370;2023-07-08T11:46:34;33.60;99.90
12602;DHT22;30282;16.436;99.370;2023-07-08T11:49:05;33.60;99.90
12602;DHT22;30282;16.436;99.370;2023-07-08T11:51:39;33.60;99.90
12602;DHT22;30282;16.436;99.370;2023-07-08T11:54:13;33.50;99.90
12602;DHT22;30282;16.436;99.370;2023-07-08T11:56:57;33.50;99.90
12602;DHT22;30282;16.436;99.370;2023-07-08T11:59:30;33.40;99.90
12602;DHT22;30282;16.436;99.370;2023-07-08T12:02:09;33.40;99.90
12602;DHT22;30282;16.436;99.370;2023-07-08T12:04:58;33.30;99.90
12602;DHT22;30282;16.436;99.370;2023-07-08T12:07:36;33.30;99.90
12602;DHT22;30282;16.436;99.370;2023-07-08T12:10:10;33.30;99.90
12602;DHT22;30282;16.436;99.370;2023-07-08T12:12:42;33.20;99.90
12602;DHT22;30282;16.436;99.370;2023-07-08T12:15:15;33.20;99.90
12602;DHT22;30282;16.436;99.370;2023-07-08T12:17:45;33.20;99.90
12602;DHT22;30282;16.436;99.370;2023-07-08T12:20:19;33.20;99.90
12602;DHT22;30282;16.436;99.370;2023-07-08T12:22:52;33.30;99.90
12602;DHT22;30282;16.436;99.370;2023-07-08T12:25:26;33.20;99.90
12602;DHT22;30282;16.436;99.370;2023-07-08T12:27:56;33.20;99.90
12602;DHT22;30282;16.436;99.370;2023-07-08T12:30:27;33.20;99.90
12602;DHT22;30282;16.436;99.370;2023-07-08T12:32:57;33.20;99.90
12602;DHT22;30282;16.436;99.370;2023-07-08T12:35:29;33.10;99.90
12602;DHT22;30282;16.436;99.370;2023-07-08T12:38:02;33.00;99.90
12602;DHT22;30282;16.436;99.370;2023-07-08T12:40:32;33.00;99.90
12602;DHT22;30282;16.436;99.370;2023-07-08T12:43:01;32.90;99.90
12602;DHT22;30282;16.436;99.370;2023-07-08T12:45:31;32.80;99.90
12602;DHT22;30282;16.436;99.370;2023-07-08T12:48:01;32.80;99.90
12602;DHT22;30282;16.436;99.370;2023-07-08T12:50:30;32.80;99.90
12602;DHT22;30282;16.436;99.370;2023-07-08T12:53:04;32.80;99.90
12602;DHT22;30282;16.436;99.370;2023-07-08T12:55:37;32.80;99.90
12602;DHT22;30282;16.436;99.370;2023-07-08T12:58:12;32.70;99.90
12602;DHT22;30282;16.436;99.370;2023-07-08T13:00:42;32.60;99.90
12602;DHT22;30282;16.436;99.370;2023-07-08T13:03:15;32.60;99.90
12602;DHT22;30282;16.436;99.370;2023-07-08T13:05:45;32.40;99.90
12602;DHT22;30282;16.436;99.370;2023-07-08T13:08:17;32.30;99.90
12602;DHT22;30282;16.436;99.370;2023-07-08T13:10:48;32.10;99.90
12602;DHT22;30282;16.436;99.370;2023-07-08T13:13:21;31.80;99.90
12602;DHT22;30282;16.436;99.370;2023-07-08T13:15:52;31.70;99.90
12602;DHT22;30282;16.436;99.370;2023-07-08T13:18:26;31.80;99.90
12602;DHT22;30282;16.436;99.370;2023-07-08T13:20:56;31.70;99.90
12602;DHT22;30282;16.436;99.370;2023-07-08T13:23:29;31.60;99.90
12602;DHT22;30282;16.436;99.370;2023-07-08T13:25:59;31.40;99.90
12602;DHT22;30282;16.436;99.370;2023-07-08T13:28:35;31.30;99.90
12602;DHT22;30282;16.436;99.370;2023-07-08T13:31:14;31.10;99.90
12602;DHT22;30282;16.436;99.370;2023-07-08T13:33:46;30.80;99.90
12602;DHT22;30282;16.436;99.370;2023-07-08T13:36:18;30.80;99.90
12602;DHT22;30282;16.436;99.370;2023-07-08T13:38:49;30.80;99.90
12602;DHT22;30282;16.436;99.370;2023-07-08T13:41:21;30.70;99.90
12602;DHT22;30282;16.436;99.370;2023-07-08T13:43:51;30.40;99.90
12602;DHT22;30282;16.436;99.370;2023-07-08T13:46:30;30.40;99.90
12602;DHT22;30282;16.436;99.370;2023-07-08T13:49:02;30.40;99.90
12602;DHT22;30282;16.436;99.370;2023-07-08T13:51:33;30.50;99.90
12602;DHT22;30282;16.436;99.370;2023-07-08T13:54:13;30.50;99.90
12602;DHT22;30282;16.436;99.370;2023-07-08T13:56:43;30.60;99.90
12602;DHT22;30282;16.436;99.370;2023-07-08T13:59:17;30.60;99.90
12602;DHT22;30282;16.436;99.370;2023-07-08T14:01:47;30.40;99.90
12602;DHT22;30282;16.436;99.370;2023-07-08T14:04:19;30.10;99.90
12602;DHT22;30282;16.436;99.370;2023-07-08T14:06:49;29.80;99.90
12602;DHT22;30282;16.436;99.370;2023-07-08T14:09:21;29.60;99.90
12602;DHT22;30282;16.436;99.370;2023-07-08T14:11:51;29.70;99.90
12602;DHT22;30282;16.436;99.370;2023-07-08T14:14:21;29.60;99.90
12602;DHT22;30282;16.436;99.370;2023-07-08T14:16:51;29.50;99.90
12602;DHT22;30282;16.436;99.370;2023-07-08T14:19:25;29.40;99.90
12602;DHT22;30282;16.436;99.370;2023-07-08T14:21:56;29.30;99.90
12602;DHT22;30282;16.436;99.370;2023-07-08T14:24:28;29.00;99.90
12602;DHT22;30282;16.436;99.370;2023-07-08T14:26:57;28.60;99.90
12602;DHT22;30282;16.436;99.370;2023-07-08T14:29:26;28.60;99.90
12602;DHT22;30282;16.436;99.370;2023-07-08T14:31:56;28.70;99.90
12602;DHT22;30282;16.436;99.370;2023-07-08T14:34:26;28.90;99.90
12602;DHT22;30282;16.436;99.370;2023-07-08T14:37:00;29.00;99.90
12602;DHT22;30282;16.436;99.370;2023-07-08T14:39:31;29.10;99.90
12602;DHT22;30282;16.436;99.370;2023-07-08T14:42:00;29.10;99.90
12602;DHT22;30282;16.436;99.370;2023-07-08T14:44:32;28.90;99.90
12602;DHT22;30282;16.436;99.370;2023-07-08T14:47:04;28.90;99.90
12602;DHT22;30282;16.436;99.370;2023-07-08T14:49:33;29.00;99.90
12602;DHT22;30282;16.436;99.370;2023-07-08T14:52:03;29.00;99.90
12602;DHT22;30282;16.436;99.370;2023-07-08T14:54:34;29.00;99.90
12602;DHT22;30282;16.436;99.370;2023-07-08T14:57:05;28.90;99.90
12602;DHT22;30282;16.436;99.370;2023-07-08T14:59:36;28.90;99.90
12602;DHT22;30282;16.436;99.370;2023-07-08T15:02:18;28.90;99.90
12602;DHT22;30282;16.436;99.370;2023-07-08T15:04:48;28.90;99.90
12602;DHT22;30282;16.436;99.370;2023-07-08T15:07:20;29.00;99.90
12602;DHT22;30282;16.436;99.370;2023-07-08T15:09:51;29.00;99.90
12602;DHT22;30282;16.436;99.370;2023-07-08T15:12:20;28.90;99.90
12602;DHT22;30282;16.436;99.370;2023-07-08T15:14:50;28.90;99.90
12602;DHT22;30282;16.436;99.370;2023-07-08T15:17:19;28.90;99.90
12602;DHT22;30282;16.436;99.370;2023-07-08T15:19:48;28.90;99.90
12602;DHT22;30282;16.436;99.370;2023-07-08T15:22:17;28.90;99.90
12602;DHT22;30282;16.436;99.370;2023-07-08T15:24:47;28.90;99.90
12602;DHT22;30282;16.436;99.370;2023-07-08T15:27:20;28.90;99.90
12602;DHT22;30282;16.436;99.370;2023-07-08T15:29:51;28.90;99.90
12602;DHT22;30282;16.436;99.370;2023-07-08T15:32:24;28.80;99.90
12602;DHT22;30282;16.436;99.370;2023-07-08T15:34:53;28.80;99.90
12602;DHT22;30282;16.436;99.370;2023-07-08T15:37:23;28.80;99.90
12602;DHT22;30282;16.436;99.370;2023-07-08T15:39:52;28.80;99.90
12602;DHT22;30282;16.436;99.370;2023-07-08T15:54:10;28.60;99.90
12602;DHT22;30282;16.436;99.370;2023-07-08T15:56:41;28.40;99.90
12602;DHT22;30282;16.436;99.370;2023-07-08T15:59:12;28.40;99.90